D/T METAR WX W/DIR W/SPE G/SPE TEMP DEWP
7/12/19 22:50 EGXE 072250Z AUTO 17019G29KT 9999 -RA SCT018/// BKN080/// 10/07 Q0993 -RA S (170°) 21.9mph 33.4mph 10°C 7°C
7/12/19 21:50 EGXE 072150Z AUTO 18019G29KT 9999 BKN018/// 10/07 Q0995 S (180°) 21.9mph 33.4mph 10°C 7°C
7/12/19 20:50 EGXE 072050Z AUTO 19020KT 9999 FEW018/// BKN220/// 10/07 Q0998 S (190°) 23.0mph 10°C 7°C
7/12/19 19:50 EGXE 071950Z AUTO 20019G31KT 9999 FEW070/// BKN200/// BKN250/// 10/07 Q1000 SSW (200°) 21.9mph 35.7mph 10°C 7°C
7/12/19 18:50 EGXE 071850Z AUTO 21013KT 9999 BKN070/// 10/07 Q1001 SSW (210°) 15.0mph 10°C 7°C
7/12/19 17:50 EGXE 071750Z AUTO 19008KT 9999 SCT027/// BKN080/// 10/07 Q1003 S (190°) 9.2mph 10°C 7°C
7/12/19 16:50 EGXE 071650Z AUTO 20012KT 9999 FEW025/// BKN070/// 09/07 Q1004 RERA SSW (200°) 13.8mph 9°C 7°C
7/12/19 15:50 EGXE 071550Z AUTO 21015KT 9999 FEW090/// BKN150/// 09/06 Q1005 SSW (210°) 17.3mph 9°C 6°C
7/12/19 14:50 EGXE 071450Z AUTO 20011KT 9999 BKN019/// SCT070/// BKN200/// 09/06 Q1005 SSW (200°) 12.7mph 9°C 6°C
7/12/19 13:50 EGXE 071350Z AUTO 22016KT 9999 BKN019/// SCT070/// BKN200/// 09/06 Q1006 SW (220°) 18.4mph 9°C 6°C
7/12/19 12:50 EGXE 071250Z AUTO 23016KT 9999 SCT021/// BKN060/// 10/06 Q1007 SW (230°) 18.4mph 10°C 6°C
7/12/19 11:50 EGXE 071150Z AUTO 21009KT 9999 BKN021/// SCT070/// 10/06 Q1007 SSW (210°) 10.4mph 10°C 6°C
7/12/19 10:50 EGXE 071050Z AUTO 21005KT 9999 OVC025/// 09/06 Q1008 SSW (210°) 5.8mph 9°C 6°C
7/12/19 09:50 EGXE 070950Z AUTO 24007KT 9999 SCT021/// BKN031/// 09/06 Q1008 WSW (240°) 8.1mph 9°C 6°C
7/12/19 08:50 EGXE 070850Z AUTO 23005KT 9999 SCT034/// 07/05 Q1008 SW (230°) 5.8mph 7°C 5°C
7/12/19 07:50 EGXE 070750Z AUTO 25011KT 9999 NCD 08/05 Q1007 WSW (250°) 12.7mph 8°C 5°C
7/12/19 06:50 EGXE 070650Z AUTO 25009KT 9999 NCD 08/05 Q1007 WSW (250°) 10.4mph 8°C 5°C
7/12/19 05:50 EGXE 070550Z AUTO 26016KT 9999 BKN200/// 08/06 Q1006 W (260°) 18.4mph 8°C 6°C
7/12/19 04:50 EGXE 070450Z AUTO 27011KT 9999 FEW045/// BKN190/// 08/06 Q1006 W (270°) 12.7mph 8°C 6°C
7/12/19 03:50 EGXE 070350Z AUTO 27006KT 9999 BKN210/// 09/06 Q1006 W (270°) 6.9mph 9°C 6°C
7/12/19 02:50 EGXE 070250Z AUTO 26008KT 9999 BKN045/// BKN220/// 08/05 Q1005 W (260°) 9.2mph 8°C 5°C
7/12/19 01:50 EGXE 070150Z AUTO 25005KT 9999 FEW018/// 06/04 Q1005 WSW (250°) 5.8mph 6°C 4°C
7/12/19 00:50 EGXE 070050Z AUTO 26009KT 9999 NCD 08/06 Q1004 W (260°) 10.4mph 8°C 6°C
6/12/19 23:50 EGXE 062350Z AUTO 28006KT 9999 SCT200/// 08/05 Q1003 W (280°) 6.9mph 8°C 5°C
6/12/19 22:50 EGXE 062250Z AUTO 27012KT 9999 SCT200/// 08/06 Q1002 W (270°) 13.8mph 8°C 6°C
6/12/19 21:50 EGXE 062150Z AUTO 26013KT 9999 NCD 08/06 Q1002 W (260°) 15.0mph 8°C 6°C
6/12/19 20:50 EGXE 062050Z AUTO 26010KT 9999 NCD 08/06 Q1001 W (260°) 11.5mph 8°C 6°C
6/12/19 19:50 EGXE 061950Z AUTO 27010KT 9999 NCD 09/06 Q1000 W (270°) 11.5mph 9°C 6°C
6/12/19 18:50 EGXE 061850Z AUTO 27015KT 9999 NCD 09/05 Q0999 W (270°) 17.3mph 9°C 5°C
6/12/19 17:50 EGXE 061750Z AUTO 28007KT 9999 NCD 08/06 Q0998 W (280°) 8.1mph 8°C 6°C
6/12/19 16:50 EGXE 061650Z AUTO 25009KT 9999 FEW027/// SCT190/// 08/06 Q0996 WSW (250°) 10.4mph 8°C 6°C
6/12/19 15:50 EGXE 061550Z 28012KT 9999 SCT025 SCT120 BKN250 10/06 Q0995 RMK BLU W (280°) 13.8mph 10°C 6°C
6/12/19 15:20 EGXE 061520Z 26011KT 9999 SCT025 BKN160 BKN250 10/06 Q0995 NOSIG RMK BLU BLU W (260°) 12.7mph 10°C 6°C
6/12/19 14:50 EGXE 061450Z 27015KT 9999 FEW016 BKN027 10/06 Q0995 TEMPO SCT020 RMK BLU TEMPO WHT W (270°) 17.3mph 10°C 6°C
6/12/19 14:20 EGXE 061420Z 28009KT 9999 FEW016 BKN024 10/07 Q0995 TEMPO FEW020 RMK WHT TEMPO BLU W (280°) 10.4mph 10°C 7°C
6/12/19 13:50 EGXE 061350Z 25008KT 9999 FEW016 BKN023 10/07 Q0994 TEMPO FEW020 RMK WHT TEMPO BLU WSW (250°) 9.2mph 10°C 7°C
6/12/19 13:20 EGXE 061320Z 25011KT 9999 FEW016 BKN023 11/07 Q0994 TEMPO FEW020 RMK WHT TEMPO BLU WSW (250°) 12.7mph 11°C 7°C
6/12/19 12:50 EGXE 061250Z 27009KT 9999 SCT023 BKN030 11/07 Q0995 NOSIG RMK WHT WHT W (270°) 10.4mph 11°C 7°C
6/12/19 12:20 EGXE 061220Z 28008G18KT 9999 FEW022 SCT030 13/08 Q0995 NOSIG RMK BLU LU W (280°) 9.2mph 20.7mph 13°C 8°C
6/12/19 11:50 EGXE 061150Z 24012KT 9999 FEW020 11/07 Q0995 NOSIG RMK BLU BLU WSW (240°) 13.8mph 11°C 7°C
6/12/19 11:20 EGXE 061120Z 23017KT 9999 FEW020 11/07 Q0995 NOSIG RMK BLU BLU SW (230°) 19.6mph 11°C 7°C
6/12/19 10:50 EGXE 061050Z 24016KT 9999 FEW020 SCT060 12/07 Q0995 NOSIG RMK BLU BLU WSW (240°) 18.4mph 12°C 7°C
6/12/19 10:24 EGXE 061024Z 23016KT 9999 FEW018 12/08 Q0995 NOSIG RMK BLU BLU SW (230°) 18.4mph 12°C 8°C
6/12/19 09:50 EGXE 060950Z 23019KT 9999 BKN020 12/09 Q0995 TEMPO 7000 SHRA RMK WHT TEMPO WHT SW (230°) 21.9mph 12°C 9°C
6/12/19 09:20 EGXE 060920Z 21013KT 9999 BKN020 12/10 Q0995 NOSIG RMK WHT WHT SSW (210°) 15.0mph 12°C 10°C
6/12/19 08:50 EGXE 060850Z 22015KT 9999 BKN018 BKN045 12/10 Q0996 NOSIG RMK WHT WHT SW (220°) 17.3mph 12°C 10°C
6/12/19 07:50 EGXE 060750Z 19013KT 9999 FEW010 BKN018 BKN045 12/10 Q0996 RMK WHT S (190°) 15.0mph 12°C 10°C
6/12/19 06:50 EGXE 060650Z 17011KT 9999 BKN021 11/10 Q0996 RMK WHT S (170°) 12.7mph 11°C 10°C